sensor_id;sensor_type;location;lat;lon;timestamp;P1;durP1;ratioP1;P2;durP2;ratioP2
35612;SDS011;22054;51.646;7.078;2023-08-08T00:01:20;0.00;;;0.00;;
35612;SDS011;22054;51.646;7.078;2023-08-08T00:03:46;0.00;;;0.00;;
35612;SDS011;22054;51.646;7.078;2023-08-08T00:06:12;0.00;;;0.00;;
35612;SDS011;22054;51.646;7.078;2023-08-08T00:08:38;0.00;;;0.00;;
35612;SDS011;22054;51.646;7.078;2023-08-08T00:11:04;0.00;;;0.00;;
35612;SDS011;22054;51.646;7.078;2023-08-08T00:13:29;0.00;;;0.00;;
35612;SDS011;22054;51.646;7.078;2023-08-08T00:15:55;0.00;;;0.00;;
35612;SDS011;22054;51.646;7.078;2023-08-08T00:18:21;0.00;;;0.00;;
35612;SDS011;22054;51.646;7.078;2023-08-08T00:20:47;0.00;;;0.00;;
35612;SDS011;22054;51.646;7.078;2023-08-08T00:23:12;0.00;;;0.00;;
35612;SDS011;22054;51.646;7.078;2023-08-08T00:25:38;0.00;;;0.00;;
35612;SDS011;22054;51.646;7.078;2023-08-08T00:28:04;0.00;;;0.00;;
35612;SDS011;22054;51.646;7.078;2023-08-08T00:30:30;0.00;;;0.00;;
35612;SDS011;22054;51.646;7.078;2023-08-08T00:32:56;0.00;;;0.00;;
35612;SDS011;22054;51.646;7.078;2023-08-08T00:35:21;0.00;;;0.00;;
35612;SDS011;22054;51.646;7.078;2023-08-08T00:37:47;0.00;;;0.00;;
35612;SDS011;22054;51.646;7.078;2023-08-08T00:40:13;0.00;;;0.00;;
35612;SDS011;22054;51.646;7.078;2023-08-08T00:42:39;0.00;;;0.00;;
35612;SDS011;22054;51.646;7.078;2023-08-08T00:45:05;0.00;;;0.00;;
35612;SDS011;22054;51.646;7.078;2023-08-08T00:47:32;0.00;;;0.00;;
35612;SDS011;22054;51.646;7.078;2023-08-08T00:49:59;0.00;;;0.00;;
35612;SDS011;22054;51.646;7.078;2023-08-08T00:52:27;0.00;;;0.00;;
35612;SDS011;22054;51.646;7.078;2023-08-08T00:54:53;0.00;;;0.00;;
35612;SDS011;22054;51.646;7.078;2023-08-08T00:57:19;0.00;;;0.00;;
35612;SDS011;22054;51.646;7.078;2023-08-08T00:59:45;0.00;;;0.00;;
35612;SDS011;22054;51.646;7.078;2023-08-08T01:02:11;0.00;;;0.00;;
35612;SDS011;22054;51.646;7.078;2023-08-08T01:04:37;0.00;;;0.00;;
35612;SDS011;22054;51.646;7.078;2023-08-08T01:10:20;0.00;;;0.00;;
35612;SDS011;22054;51.646;7.078;2023-08-08T01:12:57;0.00;;;0.00;;
35612;SDS011;22054;51.646;7.078;2023-08-08T01:15:27;0.00;;;0.00;;
35612;SDS011;22054;51.646;7.078;2023-08-08T01:18:00;0.00;;;0.00;;
35612;SDS011;22054;51.646;7.078;2023-08-08T01:20:30;0.00;;;0.00;;
35612;SDS011;22054;51.646;7.078;2023-08-08T01:25:40;0.00;;;0.00;;
35612;SDS011;22054;51.646;7.078;2023-08-08T01:28:06;0.00;;;0.00;;
35612;SDS011;22054;51.646;7.078;2023-08-08T01:30:33;0.00;;;0.00;;
35612;SDS011;22054;51.646;7.078;2023-08-08T01:32:59;0.00;;;0.00;;
35612;SDS011;22054;51.646;7.078;2023-08-08T01:35:26;0.00;;;0.00;;
35612;SDS011;22054;51.646;7.078;2023-08-08T01:37:59;0.00;;;0.00;;
35612;SDS011;22054;51.646;7.078;2023-08-08T01:40:48;0.00;;;0.00;;
35612;SDS011;22054;51.646;7.078;2023-08-08T01:43:15;0.00;;;0.00;;
35612;SDS011;22054;51.646;7.078;2023-08-08T01:45:41;0.00;;;0.00;;
35612;SDS011;22054;51.646;7.078;2023-08-08T01:48:09;0.00;;;0.00;;
35612;SDS011;22054;51.646;7.078;2023-08-08T01:50:36;0.00;;;0.00;;
35612;SDS011;22054;51.646;7.078;2023-08-08T01:53:02;0.00;;;0.00;;
35612;SDS011;22054;51.646;7.078;2023-08-08T01:55:29;0.00;;;0.00;;
35612;SDS011;22054;51.646;7.078;2023-08-08T01:57:56;0.00;;;0.00;;
35612;SDS011;22054;51.646;7.078;2023-08-08T02:00:21;0.00;;;0.00;;
35612;SDS011;22054;51.646;7.078;2023-08-08T02:02:47;0.00;;;0.00;;
35612;SDS011;22054;51.646;7.078;2023-08-08T02:05:13;0.00;;;0.00;;
35612;SDS011;22054;51.646;7.078;2023-08-08T02:07:39;0.00;;;0.00;;
35612;SDS011;22054;51.646;7.078;2023-08-08T02:10:05;0.00;;;0.00;;
35612;SDS011;22054;51.646;7.078;2023-08-08T02:12:31;0.00;;;0.00;;
35612;SDS011;22054;51.646;7.078;2023-08-08T02:14:57;0.00;;;0.00;;
35612;SDS011;22054;51.646;7.078;2023-08-08T02:17:23;0.00;;;0.00;;
35612;SDS011;22054;51.646;7.078;2023-08-08T02:19:49;0.00;;;0.00;;
35612;SDS011;22054;51.646;7.078;2023-08-08T02:22:15;0.00;;;0.00;;
35612;SDS011;22054;51.646;7.078;2023-08-08T02:24:42;0.00;;;0.00;;
35612;SDS011;22054;51.646;7.078;2023-08-08T02:27:08;0.00;;;0.00;;
35612;SDS011;22054;51.646;7.078;2023-08-08T02:29:34;0.00;;;0.00;;
35612;SDS011;22054;51.646;7.078;2023-08-08T02:32:00;0.00;;;0.00;;
35612;SDS011;22054;51.646;7.078;2023-08-08T02:34:25;0.00;;;0.00;;
35612;SDS011;22054;51.646;7.078;2023-08-08T02:36:51;0.00;;;0.00;;
35612;SDS011;22054;51.646;7.078;2023-08-08T02:39:17;0.00;;;0.00;;
35612;SDS011;22054;51.646;7.078;2023-08-08T02:41:43;0.00;;;0.00;;
35612;SDS011;22054;51.646;7.078;2023-08-08T02:44:08;0.00;;;0.00;;
35612;SDS011;22054;51.646;7.078;2023-08-08T02:46:35;0.00;;;0.00;;
35612;SDS011;22054;51.646;7.078;2023-08-08T02:49:02;0.00;;;0.00;;
35612;SDS011;22054;51.646;7.078;2023-08-08T02:51:29;0.00;;;0.00;;
35612;SDS011;22054;51.646;7.078;2023-08-08T02:53:55;0.00;;;0.00;;
35612;SDS011;22054;51.646;7.078;2023-08-08T02:56:20;0.00;;;0.00;;
35612;SDS011;22054;51.646;7.078;2023-08-08T02:58:46;0.00;;;0.00;;
35612;SDS011;22054;51.646;7.078;2023-08-08T03:01:12;0.00;;;0.00;;
35612;SDS011;22054;51.646;7.078;2023-08-08T03:03:40;0.00;;;0.00;;
35612;SDS011;22054;51.646;7.078;2023-08-08T03:06:05;0.00;;;0.00;;
35612;SDS011;22054;51.646;7.078;2023-08-08T03:08:31;0.00;;;0.00;;
35612;SDS011;22054;51.646;7.078;2023-08-08T03:10:57;0.00;;;0.00;;
35612;SDS011;22054;51.646;7.078;2023-08-08T03:13:22;0.00;;;0.00;;
35612;SDS011;22054;51.646;7.078;2023-08-08T03:15:48;0.00;;;0.00;;
35612;SDS011;22054;51.646;7.078;2023-08-08T03:18:14;0.00;;;0.00;;
35612;SDS011;22054;51.646;7.078;2023-08-08T03:20:40;0.00;;;0.00;;
35612;SDS011;22054;51.646;7.078;2023-08-08T03:23:05;0.00;;;0.00;;
35612;SDS011;22054;51.646;7.078;2023-08-08T03:25:31;0.00;;;0.00;;
35612;SDS011;22054;51.646;7.078;2023-08-08T03:27:57;0.00;;;0.00;;
35612;SDS011;22054;51.646;7.078;2023-08-08T03:30:23;0.00;;;0.00;;
35612;SDS011;22054;51.646;7.078;2023-08-08T03:32:48;0.00;;;0.00;;
35612;SDS011;22054;51.646;7.078;2023-08-08T03:35:14;0.00;;;0.00;;
35612;SDS011;22054;51.646;7.078;2023-08-08T03:37:40;0.00;;;0.00;;
35612;SDS011;22054;51.646;7.078;2023-08-08T03:40:07;0.00;;;0.00;;
35612;SDS011;22054;51.646;7.078;2023-08-08T03:42:33;0.00;;;0.00;;
35612;SDS011;22054;51.646;7.078;2023-08-08T03:44:59;0.00;;;0.00;;
35612;SDS011;22054;51.646;7.078;2023-08-08T03:47:25;0.00;;;0.00;;
35612;SDS011;22054;51.646;7.078;2023-08-08T03:49:51;0.00;;;0.00;;
35612;SDS011;22054;51.646;7.078;2023-08-08T03:52:20;0.00;;;0.00;;
35612;SDS011;22054;51.646;7.078;2023-08-08T03:54:46;0.00;;;0.00;;
35612;SDS011;22054;51.646;7.078;2023-08-08T03:57:12;0.00;;;0.00;;
35612;SDS011;22054;51.646;7.078;2023-08-08T03:59:37;0.00;;;0.00;;
35612;SDS011;22054;51.646;7.078;2023-08-08T04:02:03;0.00;;;0.00;;
35612;SDS011;22054;51.646;7.078;2023-08-08T04:04:29;0.00;;;0.00;;
35612;SDS011;22054;51.646;7.078;2023-08-08T04:06:55;0.00;;;0.00;;
35612;SDS011;22054;51.646;7.078;2023-08-08T04:09:21;0.00;;;0.00;;
35612;SDS011;22054;51.646;7.078;2023-08-08T04:11:46;0.00;;;0.00;;
35612;SDS011;22054;51.646;7.078;2023-08-08T04:14:12;0.00;;;0.00;;
35612;SDS011;22054;51.646;7.078;2023-08-08T04:16:38;0.00;;;0.00;;
35612;SDS011;22054;51.646;7.078;2023-08-08T04:19:04;0.00;;;0.00;;
35612;SDS011;22054;51.646;7.078;2023-08-08T04:21:30;0.00;;;0.00;;
35612;SDS011;22054;51.646;7.078;2023-08-08T04:23:57;0.00;;;0.00;;
35612;SDS011;22054;51.646;7.078;2023-08-08T04:26:24;0.00;;;0.00;;
35612;SDS011;22054;51.646;7.078;2023-08-08T04:28:50;0.00;;;0.00;;
35612;SDS011;22054;51.646;7.078;2023-08-08T04:31:16;0.00;;;0.00;;
35612;SDS011;22054;51.646;7.078;2023-08-08T04:33:42;0.00;;;0.00;;
35612;SDS011;22054;51.646;7.078;2023-08-08T04:36:07;0.00;;;0.00;;
35612;SDS011;22054;51.646;7.078;2023-08-08T04:38:33;0.00;;;0.00;;
35612;SDS011;22054;51.646;7.078;2023-08-08T04:40:59;0.00;;;0.00;;
35612;SDS011;22054;51.646;7.078;2023-08-08T04:43:25;0.00;;;0.00;;
35612;SDS011;22054;51.646;7.078;2023-08-08T04:45:52;0.00;;;0.00;;
35612;SDS011;22054;51.646;7.078;2023-08-08T04:48:18;0.00;;;0.00;;
35612;SDS011;22054;51.646;7.078;2023-08-08T04:50:45;0.00;;;0.00;;
35612;SDS011;22054;51.646;7.078;2023-08-08T04:53:12;0.00;;;0.00;;
35612;SDS011;22054;51.646;7.078;2023-08-08T04:55:37;0.00;;;0.00;;
35612;SDS011;22054;51.646;7.078;2023-08-08T04:58:04;0.00;;;0.00;;
35612;SDS011;22054;51.646;7.078;2023-08-08T05:00:30;0.00;;;0.00;;
35612;SDS011;22054;51.646;7.078;2023-08-08T05:02:55;0.00;;;0.00;;
35612;SDS011;22054;51.646;7.078;2023-08-08T05:05:21;0.00;;;0.00;;
35612;SDS011;22054;51.646;7.078;2023-08-08T05:07:47;0.00;;;0.00;;
35612;SDS011;22054;51.646;7.078;2023-08-08T05:10:12;0.00;;;0.00;;
35612;SDS011;22054;51.646;7.078;2023-08-08T05:12:38;0.00;;;0.00;;
35612;SDS011;22054;51.646;7.078;2023-08-08T05:15:04;0.00;;;0.00;;
35612;SDS011;22054;51.646;7.078;2023-08-08T05:17:31;0.00;;;0.00;;
35612;SDS011;22054;51.646;7.078;2023-08-08T05:19:57;0.00;;;0.00;;
35612;SDS011;22054;51.646;7.078;2023-08-08T05:22:23;0.00;;;0.00;;
35612;SDS011;22054;51.646;7.078;2023-08-08T05:24:48;0.00;;;0.00;;
35612;SDS011;22054;51.646;7.078;2023-08-08T05:27:14;0.00;;;0.00;;
35612;SDS011;22054;51.646;7.078;2023-08-08T05:29:40;0.00;;;0.00;;
35612;SDS011;22054;51.646;7.078;2023-08-08T05:32:06;0.00;;;0.00;;
35612;SDS011;22054;51.646;7.078;2023-08-08T05:34:33;0.00;;;0.00;;
35612;SDS011;22054;51.646;7.078;2023-08-08T05:36:59;0.00;;;0.00;;
35612;SDS011;22054;51.646;7.078;2023-08-08T05:39:25;0.00;;;0.00;;
35612;SDS011;22054;51.646;7.078;2023-08-08T05:41:51;0.00;;;0.00;;
35612;SDS011;22054;51.646;7.078;2023-08-08T05:44:17;0.00;;;0.00;;
35612;SDS011;22054;51.646;7.078;2023-08-08T05:46:43;0.00;;;0.00;;
35612;SDS011;22054;51.646;7.078;2023-08-08T05:49:09;0.00;;;0.00;;
35612;SDS011;22054;51.646;7.078;2023-08-08T05:51:35;0.00;;;0.00;;
35612;SDS011;22054;51.646;7.078;2023-08-08T05:54:00;0.00;;;0.00;;
35612;SDS011;22054;51.646;7.078;2023-08-08T05:56:33;0.00;;;0.00;;
35612;SDS011;22054;51.646;7.078;2023-08-08T05:59:01;0.00;;;0.00;;
35612;SDS011;22054;51.646;7.078;2023-08-08T06:01:26;0.00;;;0.00;;
35612;SDS011;22054;51.646;7.078;2023-08-08T06:03:52;0.00;;;0.00;;
35612;SDS011;22054;51.646;7.078;2023-08-08T06:06:18;0.00;;;0.00;;
35612;SDS011;22054;51.646;7.078;2023-08-08T06:08:44;0.00;;;0.00;;
35612;SDS011;22054;51.646;7.078;2023-08-08T06:11:09;0.00;;;0.00;;
35612;SDS011;22054;51.646;7.078;2023-08-08T06:13:35;0.00;;;0.00;;
35612;SDS011;22054;51.646;7.078;2023-08-08T06:16:01;0.00;;;0.00;;
35612;SDS011;22054;51.646;7.078;2023-08-08T06:21:00;0.00;;;0.00;;
35612;SDS011;22054;51.646;7.078;2023-08-08T06:23:26;0.00;;;0.00;;
35612;SDS011;22054;51.646;7.078;2023-08-08T06:25:51;0.00;;;0.00;;
35612;SDS011;22054;51.646;7.078;2023-08-08T06:28:17;0.00;;;0.00;;
35612;SDS011;22054;51.646;7.078;2023-08-08T06:30:43;0.00;;;0.00;;
35612;SDS011;22054;51.646;7.078;2023-08-08T06:33:09;0.00;;;0.00;;
35612;SDS011;22054;51.646;7.078;2023-08-08T06:35:34;0.00;;;0.00;;
35612;SDS011;22054;51.646;7.078;2023-08-08T06:38:00;0.00;;;0.00;;
35612;SDS011;22054;51.646;7.078;2023-08-08T06:40:26;0.00;;;0.00;;
35612;SDS011;22054;51.646;7.078;2023-08-08T06:42:52;0.00;;;0.00;;
35612;SDS011;22054;51.646;7.078;2023-08-08T06:45:18;0.00;;;0.00;;
35612;SDS011;22054;51.646;7.078;2023-08-08T06:47:44;0.00;;;0.00;;
35612;SDS011;22054;51.646;7.078;2023-08-08T06:50:10;0.00;;;0.00;;
35612;SDS011;22054;51.646;7.078;2023-08-08T06:52:36;0.00;;;0.00;;
35612;SDS011;22054;51.646;7.078;2023-08-08T06:55:02;0.00;;;0.00;;
35612;SDS011;22054;51.646;7.078;2023-08-08T06:57:31;0.00;;;0.00;;
35612;SDS011;22054;51.646;7.078;2023-08-08T06:59:58;0.00;;;0.00;;
35612;SDS011;22054;51.646;7.078;2023-08-08T07:02:24;0.00;;;0.00;;
35612;SDS011;22054;51.646;7.078;2023-08-08T07:04:53;0.00;;;0.00;;
35612;SDS011;22054;51.646;7.078;2023-08-08T07:07:18;0.00;;;0.00;;
35612;SDS011;22054;51.646;7.078;2023-08-08T07:09:44;0.00;;;0.00;;
35612;SDS011;22054;51.646;7.078;2023-08-08T07:12:10;0.00;;;0.00;;
35612;SDS011;22054;51.646;7.078;2023-08-08T07:14:36;0.00;;;0.00;;
35612;SDS011;22054;51.646;7.078;2023-08-08T07:17:02;0.00;;;0.00;;
35612;SDS011;22054;51.646;7.078;2023-08-08T07:19:28;0.00;;;0.00;;
35612;SDS011;22054;51.646;7.078;2023-08-08T07:21:54;0.00;;;0.00;;
35612;SDS011;22054;51.646;7.078;2023-08-08T07:24:20;0.00;;;0.00;;
35612;SDS011;22054;51.646;7.078;2023-08-08T07:26:46;0.00;;;0.00;;
35612;SDS011;22054;51.646;7.078;2023-08-08T07:29:12;0.00;;;0.00;;
35612;SDS011;22054;51.646;7.078;2023-08-08T07:31:37;0.00;;;0.00;;
35612;SDS011;22054;51.646;7.078;2023-08-08T07:34:03;0.00;;;0.00;;
35612;SDS011;22054;51.646;7.078;2023-08-08T07:36:29;0.00;;;0.00;;
35612;SDS011;22054;51.646;7.078;2023-08-08T07:38:54;0.00;;;0.00;;
35612;SDS011;22054;51.646;7.078;2023-08-08T07:41:25;0.00;;;0.00;;
35612;SDS011;22054;51.646;7.078;2023-08-08T07:43:52;0.00;;;0.00;;
35612;SDS011;22054;51.646;7.078;2023-08-08T07:46:18;0.00;;;0.00;;
35612;SDS011;22054;51.646;7.078;2023-08-08T07:48:43;0.00;;;0.00;;
35612;SDS011;22054;51.646;7.078;2023-08-08T07:51:09;0.00;;;0.00;;
35612;SDS011;22054;51.646;7.078;2023-08-08T07:53:35;0.00;;;0.00;;
35612;SDS011;22054;51.646;7.078;2023-08-08T07:56:01;0.00;;;0.00;;
35612;SDS011;22054;51.646;7.078;2023-08-08T07:58:26;0.00;;;0.00;;
35612;SDS011;22054;51.646;7.078;2023-08-08T08:00:52;0.00;;;0.00;;
35612;SDS011;22054;51.646;7.078;2023-08-08T08:03:21;0.00;;;0.00;;
35612;SDS011;22054;51.646;7.078;2023-08-08T08:05:47;0.00;;;0.00;;
35612;SDS011;22054;51.646;7.078;2023-08-08T08:08:13;0.00;;;0.00;;
35612;SDS011;22054;51.646;7.078;2023-08-08T08:10:38;0.00;;;0.00;;
35612;SDS011;22054;51.646;7.078;2023-08-08T08:13:04;0.00;;;0.00;;
35612;SDS011;22054;51.646;7.078;2023-08-08T08:15:30;0.00;;;0.00;;
35612;SDS011;22054;51.646;7.078;2023-08-08T08:17:56;0.00;;;0.00;;
35612;SDS011;22054;51.646;7.078;2023-08-08T08:20:22;0.00;;;0.00;;
35612;SDS011;22054;51.646;7.078;2023-08-08T08:22:47;0.00;;;0.00;;
35612;SDS011;22054;51.646;7.078;2023-08-08T08:25:14;0.00;;;0.00;;
35612;SDS011;22054;51.646;7.078;2023-08-08T08:27:40;0.00;;;0.00;;
35612;SDS011;22054;51.646;7.078;2023-08-08T08:30:06;0.00;;;0.00;;
35612;SDS011;22054;51.646;7.078;2023-08-08T08:32:36;0.00;;;0.00;;
35612;SDS011;22054;51.646;7.078;2023-08-08T08:35:04;0.00;;;0.00;;
35612;SDS011;22054;51.646;7.078;2023-08-08T08:37:31;0.00;;;0.00;;
35612;SDS011;22054;51.646;7.078;2023-08-08T08:39:58;0.00;;;0.00;;
35612;SDS011;22054;51.646;7.078;2023-08-08T08:42:24;0.00;;;0.00;;
35612;SDS011;22054;51.646;7.078;2023-08-08T08:44:54;0.00;;;0.00;;
35612;SDS011;22054;51.646;7.078;2023-08-08T08:47:24;0.00;;;0.00;;
35612;SDS011;22054;51.646;7.078;2023-08-08T08:49:51;0.00;;;0.00;;
35612;SDS011;22054;51.646;7.078;2023-08-08T08:52:17;0.00;;;0.00;;
35612;SDS011;22054;51.646;7.078;2023-08-08T08:54:43;0.00;;;0.00;;
35612;SDS011;22054;51.646;7.078;2023-08-08T08:57:11;0.00;;;0.00;;
35612;SDS011;22054;51.646;7.078;2023-08-08T08:59:37;0.00;;;0.00;;
35612;SDS011;22054;51.646;7.078;2023-08-08T09:02:03;0.00;;;0.00;;
35612;SDS011;22054;51.646;7.078;2023-08-08T09:04:29;0.00;;;0.00;;
35612;SDS011;22054;51.646;7.078;2023-08-08T09:06:55;0.00;;;0.00;;
35612;SDS011;22054;51.646;7.078;2023-08-08T09:09:21;0.00;;;0.00;;
35612;SDS011;22054;51.646;7.078;2023-08-08T09:11:48;0.00;;;0.00;;
35612;SDS011;22054;51.646;7.078;2023-08-08T09:14:19;0.00;;;0.00;;
35612;SDS011;22054;51.646;7.078;2023-08-08T09:16:47;0.00;;;0.00;;
35612;SDS011;22054;51.646;7.078;2023-08-08T09:19:15;0.00;;;0.00;;
35612;SDS011;22054;51.646;7.078;2023-08-08T09:21:43;0.00;;;0.00;;
35612;SDS011;22054;51.646;7.078;2023-08-08T09:24:08;0.00;;;0.00;;
35612;SDS011;22054;51.646;7.078;2023-08-08T09:26:34;0.00;;;0.00;;
35612;SDS011;22054;51.646;7.078;2023-08-08T09:29:03;0.00;;;0.00;;
35612;SDS011;22054;51.646;7.078;2023-08-08T09:31:29;0.00;;;0.00;;
35612;SDS011;22054;51.646;7.078;2023-08-08T09:33:59;0.00;;;0.00;;
35612;SDS011;22054;51.646;7.078;2023-08-08T09:36:26;0.00;;;0.00;;
35612;SDS011;22054;51.646;7.078;2023-08-08T09:38:52;0.00;;;0.00;;
35612;SDS011;22054;51.646;7.078;2023-08-08T09:41:27;0.00;;;0.00;;
35612;SDS011;22054;51.646;7.078;2023-08-08T09:43:53;0.00;;;0.00;;
35612;SDS011;22054;51.646;7.078;2023-08-08T09:46:19;0.00;;;0.00;;
35612;SDS011;22054;51.646;7.078;2023-08-08T09:48:46;0.00;;;0.00;;
35612;SDS011;22054;51.646;7.078;2023-08-08T09:51:13;0.00;;;0.00;;
35612;SDS011;22054;51.646;7.078;2023-08-08T09:53:40;0.00;;;0.00;;
35612;SDS011;22054;51.646;7.078;2023-08-08T09:56:07;0.00;;;0.00;;
35612;SDS011;22054;51.646;7.078;2023-08-08T09:58:33;0.00;;;0.00;;
35612;SDS011;22054;51.646;7.078;2023-08-08T10:00:59;0.00;;;0.00;;
35612;SDS011;22054;51.646;7.078;2023-08-08T10:03:25;0.00;;;0.00;;
35612;SDS011;22054;51.646;7.078;2023-08-08T10:05:53;0.00;;;0.00;;
35612;SDS011;22054;51.646;7.078;2023-08-08T10:08:19;0.00;;;0.00;;
35612;SDS011;22054;51.646;7.078;2023-08-08T10:10:46;0.00;;;0.00;;
35612;SDS011;22054;51.646;7.078;2023-08-08T10:13:24;0.00;;;0.00;;
35612;SDS011;22054;51.646;7.078;2023-08-08T10:15:52;0.00;;;0.00;;
35612;SDS011;22054;51.646;7.078;2023-08-08T10:18:22;0.00;;;0.00;;
35612;SDS011;22054;51.646;7.078;2023-08-08T10:20:49;0.00;;;0.00;;
35612;SDS011;22054;51.646;7.078;2023-08-08T10:23:16;0.00;;;0.00;;
35612;SDS011;22054;51.646;7.078;2023-08-08T10:25:47;0.00;;;0.00;;
35612;SDS011;22054;51.646;7.078;2023-08-08T10:28:17;0.00;;;0.00;;
35612;SDS011;22054;51.646;7.078;2023-08-08T10:30:46;0.00;;;0.00;;
35612;SDS011;22054;51.646;7.078;2023-08-08T10:33:27;0.00;;;0.00;;
35612;SDS011;22054;51.646;7.078;2023-08-08T10:36:05;0.00;;;0.00;;
35612;SDS011;22054;51.646;7.078;2023-08-08T10:38:43;0.00;;;0.00;;
35612;SDS011;22054;51.646;7.078;2023-08-08T10:41:20;0.00;;;0.00;;
35612;SDS011;22054;51.646;7.078;2023-08-08T10:43:57;0.00;;;0.00;;
35612;SDS011;22054;51.646;7.078;2023-08-08T10:48:56;0.00;;;0.00;;
35612;SDS011;22054;51.646;7.078;2023-08-08T10:54:08;0.00;;;0.00;;
35612;SDS011;22054;51.646;7.078;2023-08-08T10:56:40;0.00;;;0.00;;
35612;SDS011;22054;51.646;7.078;2023-08-08T10:59:13;0.00;;;0.00;;
35612;SDS011;22054;51.646;7.078;2023-08-08T11:01:48;0.00;;;0.00;;
35612;SDS011;22054;51.646;7.078;2023-08-08T11:04:16;0.00;;;0.00;;
35612;SDS011;22054;51.646;7.078;2023-08-08T11:06:47;0.00;;;0.00;;
35612;SDS011;22054;51.646;7.078;2023-08-08T11:09:14;0.00;;;0.00;;
35612;SDS011;22054;51.646;7.078;2023-08-08T11:11:42;0.00;;;0.00;;
35612;SDS011;22054;51.646;7.078;2023-08-08T11:14:10;0.00;;;0.00;;
35612;SDS011;22054;51.646;7.078;2023-08-08T11:16:37;0.00;;;0.00;;
35612;SDS011;22054;51.646;7.078;2023-08-08T11:19:03;0.00;;;0.00;;
35612;SDS011;22054;51.646;7.078;2023-08-08T11:21:29;0.00;;;0.00;;
35612;SDS011;22054;51.646;7.078;2023-08-08T11:23:58;0.00;;;0.00;;
35612;SDS011;22054;51.646;7.078;2023-08-08T11:26:24;0.00;;;0.00;;
35612;SDS011;22054;51.646;7.078;2023-08-08T11:28:52;0.00;;;0.00;;
35612;SDS011;22054;51.646;7.078;2023-08-08T11:31:21;0.00;;;0.00;;
35612;SDS011;22054;51.646;7.078;2023-08-08T11:33:48;0.00;;;0.00;;
35612;SDS011;22054;51.646;7.078;2023-08-08T11:36:14;0.00;;;0.00;;
35612;SDS011;22054;51.646;7.078;2023-08-08T11:38:40;0.00;;;0.00;;
35612;SDS011;22054;51.646;7.078;2023-08-08T11:41:09;0.00;;;0.00;;
35612;SDS011;22054;51.646;7.078;2023-08-08T11:43:36;0.00;;;0.00;;
35612;SDS011;22054;51.646;7.078;2023-08-08T11:46:03;0.00;;;0.00;;
35612;SDS011;22054;51.646;7.078;2023-08-08T11:48:32;0.00;;;0.00;;
35612;SDS011;22054;51.646;7.078;2023-08-08T11:50:58;0.00;;;0.00;;
35612;SDS011;22054;51.646;7.078;2023-08-08T11:53:23;0.00;;;0.00;;
35612;SDS011;22054;51.646;7.078;2023-08-08T11:55:49;0.00;;;0.00;;
35612;SDS011;22054;51.646;7.078;2023-08-08T11:58:15;12.05;;;11.45;;
35612;SDS011;22054;51.646;7.078;2023-08-08T12:00:42;6.63;;;6.32;;
35612;SDS011;22054;51.646;7.078;2023-08-08T12:03:10;6.72;;;6.43;;
35612;SDS011;22054;51.646;7.078;2023-08-08T12:05:39;6.20;;;6.00;;
35612;SDS011;22054;51.646;7.078;2023-08-08T12:08:05;5.50;;;5.30;;
35612;SDS011;22054;51.646;7.078;2023-08-08T12:10:31;6.00;;;5.80;;
35612;SDS011;22054;51.646;7.078;2023-08-08T12:12:57;6.25;;;6.05;;
35612;SDS011;22054;51.646;7.078;2023-08-08T12:15:42;6.00;;;5.80;;
35612;SDS011;22054;51.646;7.078;2023-08-08T12:18:08;6.63;;;6.35;;
35612;SDS011;22054;51.646;7.078;2023-08-08T12:20:37;6.78;;;6.47;;
35612;SDS011;22054;51.646;7.078;2023-08-08T12:23:03;6.32;;;6.13;;
35612;SDS011;22054;51.646;7.078;2023-08-08T12:25:28;6.70;;;6.40;;
35612;SDS011;22054;51.646;7.078;2023-08-08T12:27:56;6.70;;;6.40;;
35612;SDS011;22054;51.646;7.078;2023-08-08T12:30:22;6.90;;;6.60;;
35612;SDS011;22054;51.646;7.078;2023-08-08T12:32:47;6.80;;;6.50;;
35612;SDS011;22054;51.646;7.078;2023-08-08T12:35:13;7.10;;;6.80;;
35612;SDS011;22054;51.646;7.078;2023-08-08T12:37:41;7.40;;;7.10;;
35612;SDS011;22054;51.646;7.078;2023-08-08T12:40:08;6.95;;;6.65;;
35612;SDS011;22054;51.646;7.078;2023-08-08T12:42:34;6.70;;;6.40;;
35612;SDS011;22054;51.646;7.078;2023-08-08T12:45:00;0.00;;;0.00;;
35612;SDS011;22054;51.646;7.078;2023-08-08T12:47:26;0.00;;;0.00;;
35612;SDS011;22054;51.646;7.078;2023-08-08T12:49:52;5.70;;;5.50;;
35612;SDS011;22054;51.646;7.078;2023-08-08T12:52:18;0.00;;;0.00;;
35612;SDS011;22054;51.646;7.078;2023-08-08T12:54:44;0.00;;;0.00;;
35612;SDS011;22054;51.646;7.078;2023-08-08T12:57:09;0.93;;;0.93;;
35612;SDS011;22054;51.646;7.078;2023-08-08T12:59:35;0.57;;;0.57;;
35612;SDS011;22054;51.646;7.078;2023-08-08T13:02:01;1.42;;;1.42;;
35612;SDS011;22054;51.646;7.078;2023-08-08T13:04:27;4.35;;;4.15;;
35612;SDS011;22054;51.646;7.078;2023-08-08T13:06:53;0.00;;;0.00;;
35612;SDS011;22054;51.646;7.078;2023-08-08T13:09:19;0.00;;;0.00;;
35612;SDS011;22054;51.646;7.078;2023-08-08T13:11:45;0.00;;;0.00;;
35612;SDS011;22054;51.646;7.078;2023-08-08T13:14:11;0.00;;;0.00;;
35612;SDS011;22054;51.646;7.078;2023-08-08T13:16:36;2.92;;;2.83;;
35612;SDS011;22054;51.646;7.078;2023-08-08T13:19:02;7.35;;;7.05;;
35612;SDS011;22054;51.646;7.078;2023-08-08T13:21:29;7.60;;;7.30;;
35612;SDS011;22054;51.646;7.078;2023-08-08T13:23:54;7.22;;;6.93;;
35612;SDS011;22054;51.646;7.078;2023-08-08T13:26:20;7.50;;;7.20;;
35612;SDS011;22054;51.646;7.078;2023-08-08T13:28:46;7.95;;;7.65;;
35612;SDS011;22054;51.646;7.078;2023-08-08T13:31:12;7.75;;;7.45;;
35612;SDS011;22054;51.646;7.078;2023-08-08T13:33:37;13.85;;;13.15;;
35612;SDS011;22054;51.646;7.078;2023-08-08T13:36:04;0.00;;;0.00;;
35612;SDS011;22054;51.646;7.078;2023-08-08T13:38:30;0.00;;;0.00;;
35612;SDS011;22054;51.646;7.078;2023-08-08T13:40:55;0.00;;;0.00;;
35612;SDS011;22054;51.646;7.078;2023-08-08T13:43:21;0.00;;;0.00;;
35612;SDS011;22054;51.646;7.078;2023-08-08T13:45:48;0.00;;;0.00;;
35612;SDS011;22054;51.646;7.078;2023-08-08T13:48:14;0.00;;;0.00;;
35612;SDS011;22054;51.646;7.078;2023-08-08T13:50:40;0.00;;;0.00;;
35612;SDS011;22054;51.646;7.078;2023-08-08T13:53:05;0.00;;;0.00;;
35612;SDS011;22054;51.646;7.078;2023-08-08T13:55:31;0.00;;;0.00;;
35612;SDS011;22054;51.646;7.078;2023-08-08T13:58:04;0.00;;;0.00;;
35612;SDS011;22054;51.646;7.078;2023-08-08T14:00:30;0.00;;;0.00;;
35612;SDS011;22054;51.646;7.078;2023-08-08T14:02:56;0.00;;;0.00;;
35612;SDS011;22054;51.646;7.078;2023-08-08T14:05:23;0.00;;;0.00;;
35612;SDS011;22054;51.646;7.078;2023-08-08T14:07:50;0.57;;;0.57;;
35612;SDS011;22054;51.646;7.078;2023-08-08T14:10:15;0.20;;;0.20;;
35612;SDS011;22054;51.646;7.078;2023-08-08T14:12:41;0.00;;;0.00;;
35612;SDS011;22054;51.646;7.078;2023-08-08T14:15:07;0.00;;;0.00;;
35612;SDS011;22054;51.646;7.078;2023-08-08T14:17:36;0.03;;;0.03;;
35612;SDS011;22054;51.646;7.078;2023-08-08T14:20:02;0.00;;;0.00;;
35612;SDS011;22054;51.646;7.078;2023-08-08T14:22:30;0.10;;;0.10;;
35612;SDS011;22054;51.646;7.078;2023-08-08T14:24:59;1.20;;;1.20;;
35612;SDS011;22054;51.646;7.078;2023-08-08T14:27:24;1.15;;;1.15;;
35612;SDS011;22054;51.646;7.078;2023-08-08T14:29:50;0.00;;;0.00;;
35612;SDS011;22054;51.646;7.078;2023-08-08T14:32:16;7.15;;;6.85;;
35612;SDS011;22054;51.646;7.078;2023-08-08T14:34:42;7.30;;;7.00;;
35612;SDS011;22054;51.646;7.078;2023-08-08T14:37:08;6.45;;;6.22;;
35612;SDS011;22054;51.646;7.078;2023-08-08T14:39:33;6.35;;;6.15;;
35612;SDS011;22054;51.646;7.078;2023-08-08T14:41:59;0.98;;;0.98;;
35612;SDS011;22054;51.646;7.078;2023-08-08T14:44:26;4.53;;;4.32;;
35612;SDS011;22054;51.646;7.078;2023-08-08T14:46:52;1.63;;;1.63;;
35612;SDS011;22054;51.646;7.078;2023-08-08T14:49:17;0.90;;;0.90;;
35612;SDS011;22054;51.646;7.078;2023-08-08T14:51:43;0.00;;;0.00;;
35612;SDS011;22054;51.646;7.078;2023-08-08T14:54:09;0.00;;;0.00;;
35612;SDS011;22054;51.646;7.078;2023-08-08T14:56:35;0.00;;;0.00;;
35612;SDS011;22054;51.646;7.078;2023-08-08T14:59:01;0.00;;;0.00;;